Afyon, Turkey

2:31 AM EET on December 18, 2014 (GMT +0200)
Suleyman Demirel | Change Station
CLOSE
Current Station
Airport
Location: Suleyman Demirel,
Elevation: 2835 ft
Nearby Weather Stations

Elev 2835 ft 37.86 °N, 30.37 °E | Updated 11 minutes ago

Mostly Cloudy
Mostly Cloudy
45 °F
Feels Like 42 °F
N
5
Wind Variable Wind from NW

Today
High -- | Low -- °F
--% Chance of Precip.
Yesterday
High -- | Low -- °F
Precip. -- in
7:10 AM 4:38 PM
Waning Crescent, 18% visible
Pressure 30.09 in
Visibility 6.2 miles
Clouds Scattered Clouds 4000 ft
Mostly Cloudy 10000 ft
Windchill 42 °F
Dew Point 41 °F
Humidity 87%
Rainfall 0.00 in
Snow Depth Not available.
UV 0 out of 12
Pollen Not available.
Air Quality Not available.
Flu Activity Not available.
METAR LTFC 180020Z 32004KT 280V340 9999 SCT040 BKN100 07/05 Q1019

More Conditions Fewer Conditions

Pressure 30.09 in
Visibility 6.2 miles
Clouds Scattered Clouds 4000 ft
Mostly Cloudy 10000 ft
Windchill 42 °F
Dew Point 41 °F
Humidity 87%
Rainfall 0.00 in
Snow Depth Not available.
UV 0 out of 12
Pollen Not available.
Air Quality Not available.
Flu Activity Not available.
METAR LTFC 180020Z 32004KT 280V340 9999 SCT040 BKN100 07/05 Q1019

More Conditions Fewer Conditions

10-Day Weather Forecast

Almanac

Astronomy

Dec. 18, 2014 Rise Set
Actual Time
Civil Twilight
Nautical Twilight
Astronomical Twilight
Moon
Length of Visible Light
Length of Day
Tomorrow will be .
, % of the Moon is Illuminated

Today's Extremes

Country Highs Country Lows

Community

WunderPhotos

Upload Photos

1,778,837 photos uploaded!

WunderBlogs® & News

Nearby

Air Quality

  Air Quality AQ Index Pollutant
Not available.

Snow Depth

Station Depth Elevation

Earthquake Activity

City Distance Mag. Time & Date
Minimum magnitude displayed is 2.5.

Coastal Water Temperatures

Place Temperature

Nearby Weather Stations